Time;durP1;ratioP1;P1;durP2;ratioP2;P2;SDS_P1;SDS_P2;PMS_P1;PMS_P2;Temp;Humidity;BMP_temperature;BMP_pressure;BME280_temperature;BME280_humidity;BME280_pressure;Samples;Min_cycle;Max_cycle;Signal;HPM_P1;HPM_P2
2022/03/28 00:00:48;;;;;;;;;31.50;28.25;;;;;16.57;38.22;102016.22;5032725;28;45280;-71
2022/03/28 00:03:14;;;;;;;;;28.25;26.50;;;;;16.61;38.40;102028.00;5028303;28;45349;-70
2022/03/28 00:05:39;;;;;;;;;38.50;31.00;;;;;16.58;38.51;102018.03;5014564;28;45645;-71
2022/03/28 00:08:05;;;;;;;;;39.75;33.25;;;;;16.52;38.59;102012.53;5014192;28;45983;-71
2022/03/28 00:10:31;;;;;;;;;36.25;29.00;;;;;16.39;38.57;101987.94;5014426;28;45421;-71
2022/03/28 00:12:57;;;;;;;;;32.25;27.25;;;;;16.56;39.13;102014.41;5014338;28;45559;-71
2022/03/28 00:15:22;;;;;;;;;39.50;33.75;;;;;16.55;38.76;102007.19;5014843;28;45374;-71
2022/03/28 00:17:48;;;;;;;;;29.50;27.50;;;;;16.09;39.42;101936.06;5014683;28;45578;-71
2022/03/28 00:20:14;;;;;;;;;35.25;30.00;;;;;16.47;39.38;102007.00;5014487;28;45399;-70
2022/03/28 00:22:40;;;;;;;;;37.25;29.00;;;;;16.09;39.42;101939.66;5015908;28;45473;-71
2022/03/28 00:25:08;;;;;;;;;39.75;28.75;;;;;16.23;39.49;101972.31;5021713;28;45320;-70
2022/03/28 00:27:34;;;;;;;;;37.50;29.75;;;;;16.11;40.08;101947.78;5030289;28;46414;-71
2022/03/28 00:29:59;;;;;;;;;37.00;32.50;;;;;16.25;39.49;101969.63;5029658;28;45484;-71
2022/03/28 00:32:25;;;;;;;;;33.00;28.00;;;;;16.34;40.15;101986.94;5001127;28;45456;-67
2022/03/28 00:34:51;;;;;;;;;39.50;31.50;;;;;16.26;40.41;101972.38;5014915;28;45645;-72
2022/03/28 00:37:16;;;;;;;;;42.25;30.50;;;;;16.42;40.31;101991.63;5015664;28;46075;-70
2022/03/28 00:39:41;;;;;;;;;29.25;27.25;;;;;16.27;40.80;101971.50;5017939;28;45459;-72
2022/03/28 00:42:07;;;;;;;;;36.00;30.00;;;;;16.37;40.76;101987.00;5018240;28;45379;-69
2022/03/28 00:44:34;;;;;;;;;35.75;30.50;;;;;16.36;40.87;101982.47;5025095;28;45383;-69
2022/03/28 00:47:00;;;;;;;;;40.50;28.50;;;;;16.17;41.13;101956.00;5023052;28;45531;-70
2022/03/28 00:49:26;;;;;;;;;32.25;30.75;;;;;16.34;41.25;101981.53;5023174;28;45391;-72
2022/03/28 00:51:52;;;;;;;;;41.50;33.50;;;;;16.18;41.15;101958.72;5017406;28;45455;-70
2022/03/28 00:54:18;;;;;;;;;37.00;30.75;;;;;16.25;41.68;101991.22;5018222;28;45467;-70
2022/03/28 00:56:46;;;;;;;;;35.50;29.75;;;;;16.19;41.61;101975.81;5017493;28;46318;-71
2022/03/28 00:59:12;;;;;;;;;35.75;31.25;;;;;16.08;41.73;101967.47;5025202;28;45494;-70
2022/03/28 01:01:37;;;;;;;;;37.50;31.00;;;;;16.15;41.97;101972.16;5022914;28;45481;-71
2022/03/28 01:04:06;;;;;;;;;34.25;30.75;;;;;16.13;42.24;101965.78;5017611;28;45540;-70
2022/03/28 01:06:33;;;;;;;;;31.50;28.25;;;;;16.19;42.05;101986.59;5017176;28;46429;-71
2022/03/28 01:08:58;;;;;;;;;31.75;29.75;;;;;16.04;41.94;101954.81;5017052;28;45392;-71
2022/03/28 01:11:26;;;;;;;;;39.25;33.50;;;;;16.16;42.23;101984.72;5017092;28;45473;-70
2022/03/28 01:13:52;;;;;;;;;32.75;28.25;;;;;16.08;41.97;101962.06;5017245;28;45584;-70
2022/03/28 01:16:18;;;;;;;;;32.75;28.75;;;;;16.07;42.55;101968.38;5017039;28;46008;-71
2022/03/28 01:18:50;;;;;;;;;34.00;30.00;;;;;16.05;42.82;101962.00;5016812;28;45474;-70
2022/03/28 01:21:19;;;;;;;;;34.75;31.25;;;;;16.02;42.45;101961.97;5017227;28;45386;-70
2022/03/28 01:23:45;;;;;;;;;34.00;29.25;;;;;16.03;42.72;101969.16;5017547;28;45560;-70
2022/03/28 01:26:14;;;;;;;;;39.75;32.50;;;;;15.87;42.87;101935.53;5016748;28;46194;-72
2022/03/28 01:28:40;;;;;;;;;37.50;31.00;;;;;15.92;43.17;101944.66;5016893;28;45316;-70
2022/03/28 01:31:05;;;;;;;;;42.00;32.50;;;;;15.99;43.00;101954.69;5016771;28;45316;-70
2022/03/28 01:33:31;;;;;;;;;40.50;34.25;;;;;16.01;43.39;101965.50;5017050;28;45509;-70
2022/03/28 01:35:56;;;;;;;;;45.25;34.50;;;;;16.00;43.38;101952.91;5020088;28;45549;-70
2022/03/28 01:38:21;;;;;;;;;33.50;31.50;;;;;15.92;43.78;101938.34;5018007;28;45309;-70
2022/03/28 01:40:50;;;;;;;;;40.25;33.25;;;;;15.96;43.76;101946.53;5032675;28;45860;-70
2022/03/28 01:43:17;;;;;;;;;39.50;32.25;;;;;15.94;43.91;101950.97;5020486;28;45465;-69
2022/03/28 01:45:43;;;;;;;;;37.00;32.25;;;;;15.92;44.01;101957.19;5031772;28;45719;-70
2022/03/28 01:48:09;;;;;;;;;41.00;31.75;;;;;15.91;43.94;101945.50;5021719;28;45368;-70
2022/03/28 01:50:35;;;;;;;;;41.75;33.75;;;;;15.92;43.94;101943.72;5032665;28;45512;-69
2022/03/28 01:53:00;;;;;;;;;38.50;33.00;;;;;15.92;44.31;101939.25;5018470;28;45490;-71
2022/03/28 01:55:26;;;;;;;;;42.25;33.25;;;;;15.87;44.45;101926.53;5033517;28;46114;-71
2022/03/28 01:57:52;;;;;;;;;40.50;32.50;;;;;15.91;44.59;101932.03;5024100;28;45511;-71
2022/03/28 02:00:21;;;;;;;;;42.75;36.50;;;;;15.89;45.05;101940.94;5021386;28;45650;-71
2022/03/28 02:02:47;;;;;;;;;41.50;35.50;;;;;15.87;45.21;101940.91;5030321;28;45441;-72
2022/03/28 02:05:13;;;;;;;;;49.00;37.75;;;;;15.87;45.03;101940.00;5027481;28;46178;-72
2022/03/28 02:07:40;;;;;;;;;43.75;36.00;;;;;15.87;45.70;101935.53;5023358;28;45636;-71
2022/03/28 02:10:08;;;;;;;;;43.75;35.00;;;;;15.79;45.22;101927.28;5019751;28;45514;-71
2022/03/28 02:12:34;;;;;;;;;50.75;38.00;;;;;15.83;46.18;101936.34;5017063;28;45572;-71
2022/03/28 02:15:00;;;;;;;;;47.50;37.50;;;;;15.79;45.91;101931.78;5015851;28;46168;-70
2022/03/28 02:17:25;;;;;;;;;41.50;33.00;;;;;15.68;45.99;101918.00;5019043;28;45557;-71
2022/03/28 02:19:50;;;;;;;;;44.50;35.25;;;;;15.79;45.98;101937.16;5022620;28;45479;-71
2022/03/28 02:22:16;;;;;;;;;51.75;39.00;;;;;15.40;46.27;101862.53;5035241;28;45367;-71
2022/03/28 02:24:41;;;;;;;;;40.50;35.25;;;;;15.56;46.25;101897.06;5029033;28;45531;-71
2022/03/28 02:27:07;;;;;;;;;41.75;34.75;;;;;15.70;46.55;101923.41;5027438;28;45525;-71
2022/03/28 02:29:33;;;;;;;;;41.00;35.25;;;;;15.67;46.61;101924.25;5027466;28;45493;-70
2022/03/28 02:31:59;;;;;;;;;48.50;37.75;;;;;15.57;46.58;101906.03;5017318;28;45539;-70
2022/03/28 02:34:24;;;;;;;;;49.50;38.50;;;;;15.65;46.77;101921.50;5017282;28;45987;-69
2022/03/28 02:36:49;;;;;;;;;46.25;36.25;;;;;15.70;47.05;101926.09;5015733;28;46098;-69
2022/03/28 02:39:15;;;;;;;;;45.25;36.50;;;;;15.59;47.07;101906.97;5015757;28;45279;-70
2022/03/28 02:41:40;;;;;;;;;45.00;36.25;;;;;15.69;46.99;101922.50;5016239;28;45416;-71
2022/03/28 02:44:05;;;;;;;;;43.75;35.00;;;;;15.66;46.87;101920.63;5015470;28;46298;-70
2022/03/28 02:46:31;;;;;;;;;45.25;36.75;;;;;15.66;46.77;101917.94;5019093;28;45283;-70
2022/03/28 02:48:56;;;;;;;;;50.00;38.25;;;;;15.28;47.06;101857.78;5016260;28;45600;-70
2022/03/28 02:51:21;;;;;;;;;48.50;39.50;;;;;15.53;46.65;101885.31;5023477;28;45365;-70
2022/03/28 02:53:47;;;;;;;;;45.75;36.75;;;;;15.24;47.28;101832.53;5015410;28;45736;-71
2022/03/28 02:56:12;;;;;;;;;48.25;36.00;;;;;15.61;47.21;101905.25;5015695;28;45352;-71
2022/03/28 02:58:37;;;;;;;;;47.75;36.00;;;;;15.58;47.69;101889.00;5015755;28;45507;-71
2022/03/28 03:01:03;;;;;;;;;45.25;37.25;;;;;15.63;47.55;101890.94;5015425;28;45425;-70
2022/03/28 03:03:28;;;;;;;;;45.50;38.50;;;;;15.29;47.79;101828.19;4997448;28;48074;-71
2022/03/28 03:05:53;;;;;;;;;55.75;40.75;;;;;15.53;48.15;101874.53;5015177;28;45364;-70
2022/03/28 03:08:19;;;;;;;;;47.50;36.25;;;;;15.60;48.32;101887.25;5015396;28;45535;-71
2022/03/28 03:10:44;;;;;;;;;47.75;39.00;;;;;15.40;48.45;101865.22;5015408;28;45466;-71
2022/03/28 03:13:10;;;;;;;;;53.00;40.50;;;;;15.55;48.90;101887.13;5015194;28;45980;-71
2022/03/28 03:15:36;;;;;;;;;54.50;41.50;;;;;15.53;48.75;101883.50;5015296;28;45412;-71
2022/03/28 03:18:03;;;;;;;;;49.75;38.00;;;;;15.47;49.23;101878.88;5015422;28;45488;-69
2022/03/28 03:20:28;;;;;;;;;50.25;34.00;;;;;15.22;48.90;101834.28;5015361;28;45305;-70
2022/03/28 03:22:53;;;;;;;;;45.00;36.00;;;;;15.44;49.06;101881.50;5014968;28;45421;-71
2022/03/28 03:25:19;;;;;;;;;51.25;41.00;;;;;15.45;49.16;101879.72;5015067;28;45344;-71
2022/03/28 03:27:44;;;;;;;;;52.00;39.50;;;;;15.41;49.38;101867.03;5015067;28;45499;-71
2022/03/28 03:30:10;;;;;;;;;52.50;38.25;;;;;15.41;49.34;101875.09;5023416;28;45552;-73
2022/03/28 03:32:37;;;;;;;;;41.50;36.50;;;;;15.29;49.66;101862.25;5030715;28;46182;-70
2022/03/28 03:35:07;;;;;;;;;54.50;43.75;;;;;15.33;49.94;101869.56;5027884;28;45379;-70
2022/03/28 03:37:32;;;;;;;;;52.75;40.75;;;;;15.37;50.22;101873.22;5024663;28;45479;-72
2022/03/28 03:39:57;;;;;;;;;51.50;41.00;;;;;15.36;49.74;101876.78;5021312;28;45461;-72
2022/03/28 03:42:23;;;;;;;;;48.75;40.00;;;;;15.33;50.10;101877.63;5014910;28;45794;-71
2022/03/28 03:44:48;;;;;;;;;54.00;41.25;;;;;15.27;50.21;101883.75;5018730;28;45459;-70
2022/03/28 03:47:13;;;;;;;;;48.25;39.25;;;;;15.23;50.50;101880.97;5014838;28;45511;-69
2022/03/28 03:49:39;;;;;;;;;46.50;38.50;;;;;15.20;50.65;101879.09;5015358;28;45578;-70
2022/03/28 03:52:05;;;;;;;;;53.75;40.75;;;;;15.06;50.74;101848.22;5014577;28;46049;-71
2022/03/28 03:54:31;;;;;;;;;52.00;40.50;;;;;15.18;50.84;101867.41;5014479;28;45323;-69
2022/03/28 03:56:57;;;;;;;;;51.25;43.00;;;;;14.80;51.09;101800.03;5027190;28;45415;-70
2022/03/28 03:59:22;;;;;;;;;48.25;40.50;;;;;15.21;51.21;101866.53;5033939;28;45430;-72
2022/03/28 04:01:47;;;;;;;;;50.00;39.75;;;;;15.20;51.10;101870.13;5033520;28;46353;-70
2022/03/28 04:04:13;;;;;;;;;50.00;39.25;;;;;15.18;51.42;101869.16;5033614;28;45716;-70
2022/03/28 04:06:39;;;;;;;;;54.25;39.25;;;;;15.13;51.64;101877.13;5033945;28;45386;-71
2022/03/28 04:09:05;;;;;;;;;51.75;39.75;;;;;15.09;51.67;101867.16;5033549;28;45511;-71
2022/03/28 04:11:30;;;;;;;;;53.25;39.00;;;;;15.08;51.59;101868.94;5021213;28;45324;-72
2022/03/28 04:13:57;;;;;;;;;48.75;40.25;;;;;15.07;51.75;101869.78;5017768;28;45822;-71
2022/03/28 04:16:25;;;;;;;;;54.00;40.25;;;;;15.04;51.96;101864.31;5017881;28;45566;-71
2022/03/28 04:18:50;;;;;;;;;53.75;42.75;;;;;14.91;51.84;101857.75;5018233;28;45559;-70
2022/03/28 04:21:16;;;;;;;;;46.75;37.50;;;;;14.97;52.29;101870.44;5017747;28;49596;-72
2022/03/28 04:23:41;;;;;;;;;52.00;40.00;;;;;14.97;52.10;101865.06;5017852;28;45300;-68
2022/03/28 04:26:06;;;;;;;;;50.75;42.00;;;;;14.84;52.47;101852.16;5017778;28;45334;-72
2022/03/28 04:28:32;;;;;;;;;50.75;41.75;;;;;14.93;52.10;101868.50;5017922;28;45454;-70
2022/03/28 04:30:57;;;;;;;;;52.50;42.25;;;;;14.83;52.63;101862.00;5017552;28;46001;-70
2022/03/28 04:33:23;;;;;;;;;47.25;35.50;;;;;14.81;52.84;101874.47;5022757;28;45257;-69
2022/03/28 04:35:48;;;;;;;;;55.25;40.75;;;;;14.71;52.92;101864.34;5017863;28;45490;-69
2022/03/28 04:38:13;;;;;;;;;55.00;42.00;;;;;14.66;52.92;101857.94;5018338;28;45573;-71
2022/03/28 04:40:40;;;;;;;;;48.75;40.25;;;;;14.65;52.75;101859.72;5022360;28;45561;-72
2022/03/28 04:43:05;;;;;;;;;52.25;41.25;;;;;14.54;53.32;101847.72;5018371;28;45313;-70
2022/03/28 04:45:32;;;;;;;;;51.25;37.75;;;;;14.74;52.74;101872.50;5036518;28;45498;-70
2022/03/28 04:47:58;;;;;;;;;51.75;41.50;;;;;14.57;53.13;101835.25;5025385;28;45380;-71
2022/03/28 04:50:23;;;;;;;;;58.00;40.00;;;;;14.74;53.45;101867.13;5022503;28;46119;-71
2022/03/28 04:52:49;;;;;;;;;56.75;43.00;;;;;14.68;53.40;101850.81;5020783;28;45673;-71
2022/03/28 04:55:14;;;;;;;;;54.00;40.50;;;;;14.69;53.77;101858.94;5024614;28;45381;-71
2022/03/28 04:57:40;;;;;;;;;51.00;38.50;;;;;14.66;53.42;101866.00;5017736;28;45368;-72
2022/03/28 05:00:07;;;;;;;;;48.50;39.50;;;;;14.61;53.19;101856.91;5018864;28;46005;-70
2022/03/28 05:02:34;;;;;;;;;57.00;44.25;;;;;14.53;53.61;101843.19;5016856;28;45494;-71
2022/03/28 05:04:59;;;;;;;;;53.75;42.75;;;;;14.42;53.87;101823.16;5017664;28;46299;-72
2022/03/28 05:07:26;;;;;;;;;56.00;39.50;;;;;14.60;53.99;101864.06;5017979;28;45327;-72
2022/03/28 05:09:53;;;;;;;;;50.75;41.25;;;;;14.41;54.71;101840.19;5016933;28;45594;-69
2022/03/28 05:12:19;;;;;;;;;55.75;42.50;;;;;14.50;54.11;101860.19;5020504;28;45511;-70
2022/03/28 05:14:44;;;;;;;;;50.00;40.75;;;;;14.49;53.79;101858.34;5017302;28;45464;-68
2022/03/28 05:17:11;;;;;;;;;53.25;40.75;;;;;14.41;53.98;101837.50;5016786;28;45433;-70
2022/03/28 05:19:36;;;;;;;;;53.50;41.75;;;;;14.49;53.68;101847.59;5016311;28;46583;-69
2022/03/28 05:22:02;;;;;;;;;54.50;40.75;;;;;14.51;53.90;101848.53;5017267;28;45296;-69
2022/03/28 05:24:27;;;;;;;;;58.25;44.50;;;;;14.42;54.93;101856.38;5017009;28;45395;-69
2022/03/28 05:26:52;;;;;;;;;56.50;43.50;;;;;14.11;54.29;101811.56;5017580;28;45435;-70
2022/03/28 05:29:22;;;;;;;;;63.00;48.00;;;;;14.43;54.87;101874.28;5020191;28;46078;-70
2022/03/28 05:31:47;;;;;;;;;55.00;44.25;;;;;14.35;54.54;101851.66;5027240;28;45429;-70
2022/03/28 05:34:12;;;;;;;;;68.75;50.25;;;;;14.37;55.08;101863.38;5016536;28;45410;-69
2022/03/28 05:36:38;;;;;;;;;59.25;44.00;;;;;14.30;54.42;101862.28;5017018;28;45251;-72
2022/03/28 05:39:04;;;;;;;;;57.00;43.00;;;;;14.19;54.18;101845.84;5016397;28;46600;-71
2022/03/28 05:41:29;;;;;;;;;53.50;43.00;;;;;14.27;54.93;101862.22;5029767;28;45462;-71
2022/03/28 05:43:55;;;;;;;;;56.75;40.75;;;;;14.27;54.50;101861.28;5016379;28;45428;-69
2022/03/28 05:46:20;;;;;;;;;54.75;41.75;;;;;13.56;54.37;101749.03;5016488;28;45561;-71
2022/03/28 05:48:46;;;;;;;;;58.50;42.75;;;;;14.25;54.73;101866.59;5017426;28;46829;-69
2022/03/28 05:51:11;;;;;;;;;58.00;46.25;;;;;14.15;55.35;101843.91;5016204;28;45490;-70
2022/03/28 05:53:36;;;;;;;;;56.00;44.25;;;;;14.28;55.45;101863.13;5015971;28;45427;-71
2022/03/28 05:56:03;;;;;;;;;59.00;45.50;;;;;13.89;55.46;101780.44;5017258;28;45321;-71
2022/03/28 05:58:29;;;;;;;;;56.50;43.50;;;;;14.26;55.17;101859.47;5016385;28;46185;-72
2022/03/28 06:00:55;;;;;;;;;64.00;47.75;;;;;13.74;54.97;101773.78;5015930;28;45359;-70
2022/03/28 06:03:21;;;;;;;;;63.50;45.25;;;;;14.16;55.28;101863.66;5016308;28;45447;-70
2022/03/28 06:05:46;;;;;;;;;56.00;43.75;;;;;14.15;55.42;101857.34;5021437;28;45407;-71
2022/03/28 06:08:11;;;;;;;;;58.25;46.25;;;;;13.98;55.68;101838.06;5032277;28;45379;-70
2022/03/28 06:10:37;;;;;;;;;57.75;46.25;;;;;14.17;55.69;101857.41;5022173;28;45735;-70
2022/03/28 06:13:03;;;;;;;;;59.75;46.00;;;;;14.08;55.34;101828.50;5023728;28;45478;-70
2022/03/28 06:15:30;;;;;;;;;55.00;41.75;;;;;14.22;55.32;101855.75;5021073;28;45561;-71
2022/03/28 06:17:55;;;;;;;;;54.50;42.50;;;;;14.22;55.84;101860.22;5034897;28;46243;-69
2022/03/28 06:20:20;;;;;;;;;61.50;46.00;;;;;14.25;55.45;101854.94;5032462;28;45463;-71
2022/03/28 06:22:46;;;;;;;;;59.50;47.00;;;;;14.08;55.14;101819.53;5031873;28;45256;-71
2022/03/28 06:25:11;;;;;;;;;63.75;48.75;;;;;14.30;54.90;101845.25;5026316;28;45407;-72
2022/03/28 06:27:40;;;;;;;;;60.00;45.50;;;;;14.31;55.64;101847.97;5015583;28;46066;-70
2022/03/28 06:30:08;;;;;;;;;49.75;40.25;;;;;14.25;55.64;101847.78;5023650;28;45499;-72
2022/03/28 06:32:34;;;;;;;;;59.50;47.25;;;;;14.28;55.15;101846.97;5038164;28;45286;-71
2022/03/28 06:34:59;;;;;;;;;58.25;44.25;;;;;14.33;55.00;101843.53;5027252;28;45392;-71
2022/03/28 06:37:25;;;;;;;;;64.25;47.25;;;;;14.37;55.17;101845.47;5015491;28;46355;-72
2022/03/28 06:39:50;;;;;;;;;56.00;43.00;;;;;14.12;55.55;101798.16;5014519;28;45582;-72
2022/03/28 06:42:15;;;;;;;;;57.25;45.00;;;;;14.42;54.93;101842.91;5014528;28;45550;-70
2022/03/28 06:44:41;;;;;;;;;61.00;44.75;;;;;14.40;55.20;101850.00;5014462;28;45473;-69
2022/03/28 06:47:06;;;;;;;;;57.00;45.00;;;;;14.44;54.74;101851.94;5013733;28;45489;-72
2022/03/28 06:49:32;;;;;;;;;56.50;44.00;;;;;14.49;54.97;101846.69;5014244;28;45514;-72
2022/03/28 06:51:58;;;;;;;;;57.75;44.75;;;;;14.49;54.85;101844.00;5014298;28;45388;-70
2022/03/28 06:54:23;;;;;;;;;65.25;51.25;;;;;14.53;54.54;101848.56;5014921;28;45667;-71
2022/03/28 06:56:49;;;;;;;;;50.25;42.50;;;;;14.54;54.29;101836.97;5016264;28;46234;-70
2022/03/28 06:59:14;;;;;;;;;62.00;46.75;;;;;14.50;54.29;101826.97;5015008;28;45869;-68
2022/03/28 07:01:41;;;;;;;;;56.25;45.00;;;;;14.38;54.91;101800.66;5015028;28;45933;-70
2022/03/28 07:04:10;;;;;;;;;55.75;44.50;;;;;14.48;54.32;101808.09;5015085;28;45481;-72
2022/03/28 07:06:35;;;;;;;;;62.00;47.00;;;;;14.55;54.45;101839.69;5014825;28;46674;-69
2022/03/28 07:09:04;;;;;;;;;63.00;45.25;;;;;14.52;54.55;101831.53;5014867;28;45345;-70
2022/03/28 07:11:30;;;;;;;;;57.75;46.50;;;;;14.39;54.48;101813.25;5015285;28;45341;-72
2022/03/28 07:13:55;;;;;;;;;58.50;43.00;;;;;14.43;54.84;101808.88;5019704;28;45403;-72
2022/03/28 07:16:21;;;;;;;;;65.50;47.25;;;;;14.50;53.96;101817.16;5033876;28;45493;-72
2022/03/28 07:18:46;;;;;;;;;61.00;46.75;;;;;14.44;54.61;101795.47;5017342;28;45353;-72
2022/03/28 07:21:11;;;;;;;;;58.50;45.50;;;;;14.51;54.65;101824.34;5015094;28;45289;-71
2022/03/28 07:23:37;;;;;;;;;55.75;41.75;;;;;14.22;54.84;101760.78;5010369;28;45403;-71
2022/03/28 07:26:02;;;;;;;;;63.00;47.50;;;;;14.52;55.02;101823.47;5009368;28;47280;-71
2022/03/28 07:28:28;;;;;;;;;62.50;48.75;;;;;14.40;55.37;101804.28;5014686;28;45363;-71
2022/03/28 07:30:53;;;;;;;;;62.75;47.00;;;;;14.37;54.75;101797.06;5014823;28;45426;-72
2022/03/28 07:33:18;;;;;;;;;60.00;48.00;;;;;14.30;55.12;101792.38;5015104;28;45333;-73
2022/03/28 07:35:45;;;;;;;;;62.75;48.50;;;;;14.59;54.78;101816.53;5014513;28;46343;-72
2022/03/28 07:38:11;;;;;;;;;67.25;49.50;;;;;14.59;54.31;101815.59;5014581;28;45508;-71
2022/03/28 07:40:38;;;;;;;;;70.25;51.00;;;;;14.78;54.21;101825.06;4996723;28;45450;-72
2022/03/28 07:43:04;;;;;;;;;64.50;49.00;;;;;14.84;54.12;101819.88;5014511;28;45494;-73
2022/03/28 07:45:30;;;;;;;;;63.25;48.75;;;;;14.81;53.82;101795.56;5014278;28;46323;-72
2022/03/28 07:47:55;;;;;;;;;58.50;45.50;;;;;14.92;53.59;101797.66;5014536;28;45402;-70
2022/03/28 07:50:21;;;;;;;;;64.50;46.75;;;;;14.91;53.20;101797.59;5014712;28;45978;-71
2022/03/28 07:52:46;;;;;;;;;59.75;45.00;;;;;15.04;53.31;101804.22;5014699;28;45466;-72
2022/03/28 07:55:13;;;;;;;;;63.75;48.75;;;;;15.17;53.26;101814.41;5013859;28;46070;-71
2022/03/28 07:57:39;;;;;;;;;64.00;47.75;;;;;15.21;53.09;101815.38;5014133;28;45484;-72
2022/03/28 08:00:10;;;;;;;;;66.50;51.75;;;;;15.01;53.27;101771.84;5014117;28;45518;-72
2022/03/28 08:02:36;;;;;;;;;63.75;48.00;;;;;15.29;53.02;101820.13;5014466;28;45414;-71
2022/03/28 08:05:02;;;;;;;;;62.00;48.00;;;;;15.29;52.28;101806.66;5013895;28;45604;-70
2022/03/28 08:07:28;;;;;;;;;65.75;49.25;;;;;15.44;52.40;101811.50;5013856;28;45475;-71
2022/03/28 08:09:54;;;;;;;;;72.75;59.50;;;;;15.52;52.18;101811.66;5032025;28;45494;-72
2022/03/28 08:12:20;;;;;;;;;65.00;51.75;;;;;15.59;51.90;101815.38;5033595;28;45360;-71
2022/03/28 08:14:46;;;;;;;;;60.25;47.25;;;;;15.66;51.72;101818.25;5033036;28;45378;-72
2022/03/28 08:17:11;;;;;;;;;66.75;50.00;;;;;15.71;51.63;101813.00;5033382;28;45336;-71
2022/03/28 08:19:37;;;;;;;;;71.00;51.75;;;;;15.71;51.38;101809.41;5033379;28;45256;-72
2022/03/28 08:22:02;;;;;;;;;63.75;48.50;;;;;15.64;51.49;101793.09;5033399;28;46048;-74
2022/03/28 08:24:28;;;;;;;;;66.75;47.00;;;;;15.64;50.82;101779.63;5032999;28;45452;-71
2022/03/28 08:26:53;;;;;;;;;60.50;47.50;;;;;15.89;50.83;101815.22;5033174;28;45487;-71
2022/03/28 08:29:19;;;;;;;;;67.75;49.00;;;;;15.87;50.78;101797.19;5033260;28;45496;-72
2022/03/28 08:31:44;;;;;;;;;69.75;52.25;;;;;15.77;50.35;101769.13;5033432;28;45441;-71
2022/03/28 08:34:10;;;;;;;;;68.50;52.00;;;;;16.02;50.65;101794.84;5015015;28;45860;-71
2022/03/28 08:36:36;;;;;;;;;64.00;48.00;;;;;15.83;50.67;101755.78;5033230;28;45479;-70
2022/03/28 08:39:05;;;;;;;;;63.00;49.00;;;;;16.07;50.53;101786.81;5032934;28;45565;-72
2022/03/28 08:41:32;;;;;;;;;62.00;47.25;;;;;16.02;49.85;101766.06;5033484;28;45369;-72
2022/03/28 08:43:58;;;;;;;;;58.00;45.75;;;;;16.26;49.97;101798.88;5032976;28;45637;-72
2022/03/28 08:46:24;;;;;;;;;62.75;46.75;;;;;16.25;48.88;101788.97;5014761;28;45978;-72
2022/03/28 08:48:53;;;;;;;;;57.25;44.75;;;;;16.33;48.93;101798.13;5033090;28;45430;-71
2022/03/28 08:51:19;;;;;;;;;63.00;48.75;;;;;16.43;49.30;101789.31;5033463;28;45426;-71
2022/03/28 08:53:45;;;;;;;;;63.25;48.50;;;;;16.52;48.75;101791.31;5032823;28;45538;-71
2022/03/28 08:56:11;;;;;;;;;65.00;47.75;;;;;16.62;48.91;101790.59;5033010;28;45303;-70
2022/03/28 08:58:37;;;;;;;;;59.75;47.00;;;;;16.72;48.41;101792.56;5034653;28;45340;-71
2022/03/28 09:01:04;;;;;;;;;61.25;45.75;;;;;16.68;48.19;101766.41;5036777;28;45414;-71
2022/03/28 09:03:47;;;;;;;;;59.25;47.75;;;;;16.77;47.42;101761.16;5018627;28;47627;-70
2022/03/28 09:06:36;;;;;;;;;57.00;46.50;;;;;17.04;47.38;101780.53;5036189;28;45825;-72
2022/03/28 09:09:26;;;;;;;;;67.50;49.25;;;;;17.14;46.66;101782.47;5036408;28;45355;-71
2022/03/28 09:11:55;;;;;;;;;61.00;48.50;;;;;17.26;46.37;101781.81;5036519;28;45543;-71
2022/03/28 09:14:40;;;;;;;;;64.00;47.00;;;;;16.97;46.15;101703.94;5018083;28;46262;-69
2022/03/28 09:17:10;;;;;;;;;67.25;51.50;;;;;17.67;46.26;101786.91;5035698;28;45429;-70
2022/03/28 09:19:43;;;;;;;;;67.50;53.00;;;;;17.77;44.90;101764.50;5035920;28;45344;-70
2022/03/28 09:22:10;;;;;;;;;62.75;43.50;;;;;17.93;44.76;101757.50;5036182;28;45640;-70
2022/03/28 09:24:35;;;;;;;;;66.75;48.50;;;;;18.51;43.26;101772.56;5035552;28;46047;-70
2022/03/28 09:27:12;;;;;;;;;57.25;43.75;;;;;18.96;42.35;101768.53;5035397;28;46442;-72
2022/03/28 09:30:07;;;;;;;;;62.00;46.50;;;;;19.28;41.66;101757.00;5035564;28;45490;-72
2022/03/28 09:32:38;;;;;;;;;57.50;44.50;;;;;19.31;41.33;101749.78;5035306;28;45347;-72
2022/03/28 09:35:06;;;;;;;;;78.50;60.75;;;;;19.06;41.27;101699.09;5035789;28;47409;-72
2022/03/28 09:37:46;;;;;;;;;53.00;43.75;;;;;19.42;40.56;101771.56;5035829;28;45436;-71
2022/03/28 09:40:26;;;;;;;;;56.75;45.00;;;;;19.33;40.61;101763.34;5035455;28;45535;-72
2022/03/28 09:42:51;;;;;;;;;62.25;44.50;;;;;19.30;40.64;101771.47;5035634;28;45466;-72
2022/03/28 09:45:23;;;;;;;;;57.25;44.25;;;;;18.69;40.35;101668.97;5017176;28;47254;-70
2022/03/28 09:48:01;;;;;;;;;60.50;46.50;;;;;19.12;40.93;101758.69;5034998;28;45458;-70
2022/03/28 09:50:38;;;;;;;;;61.25;46.00;;;;;19.04;40.49;101736.06;5035204;28;45597;-72
2022/03/28 09:53:16;;;;;;;;;69.75;50.75;;;;;19.22;40.73;101748.84;5035028;28;45606;-72
2022/03/28 09:55:49;;;;;;;;;58.25;43.25;;;;;19.13;40.08;101731.63;5035080;28;45689;-72
2022/03/28 09:58:49;;;;;;;;;54.00;42.50;;;;;19.34;39.75;101746.22;5017480;28;45434;-72
2022/03/28 10:01:25;;;;;;;;;63.00;44.75;;;;;19.45;39.96;101744.47;5035078;28;45383;-72
2022/03/28 10:03:52;;;;;;;;;55.50;42.25;;;;;19.45;39.97;101724.59;5035642;28;45757;-72
2022/03/28 10:06:18;;;;;;;;;62.50;47.50;;;;;19.57;39.08;101724.66;5034634;28;45879;-72
2022/03/28 10:08:45;;;;;;;;;55.00;44.25;;;;;19.69;38.98;101730.13;5034806;28;45485;-72
2022/03/28 10:11:10;;;;;;;;;66.00;45.00;;;;;19.65;38.17;101716.53;5034077;28;45367;-71
2022/03/28 10:13:37;;;;;;;;;62.25;48.00;;;;;19.47;38.46;101695.72;5035623;28;45541;-69
2022/03/28 10:16:03;;;;;;;;;50.75;38.50;;;;;19.61;37.73;101721.06;5034621;28;45442;-72
2022/03/28 10:18:30;;;;;;;;;60.00;46.25;;;;;19.68;38.22;101724.69;5034737;28;45467;-70
2022/03/28 10:21:01;;;;;;;;;50.50;39.50;;;;;19.55;38.06;101683.09;5034275;28;45324;-71
2022/03/28 10:23:33;;;;;;;;;56.00;41.25;;;;;19.81;37.68;101725.69;5034880;28;45366;-71
2022/03/28 10:26:01;;;;;;;;;50.00;39.00;;;;;19.84;37.84;101698.59;5000896;28;48053;-72
2022/03/28 10:28:27;;;;;;;;;51.25;39.00;;;;;19.95;37.20;101709.47;5034743;28;45436;-72
2022/03/28 10:31:12;;;;;;;;;57.50;43.00;;;;;19.93;37.44;101700.41;5016908;28;45442;-73
2022/03/28 10:33:49;;;;;;;;;48.25;37.50;;;;;19.88;36.54;101689.53;5017477;28;45566;-72
2022/03/28 10:36:23;;;;;;;;;51.50;40.75;;;;;19.86;36.02;101666.94;5034532;28;45732;-74
2022/03/28 10:38:51;;;;;;;;;49.25;37.25;;;;;19.97;35.79;101661.56;5034183;28;45453;-71
2022/03/28 10:41:18;;;;;;;;;48.50;38.25;;;;;20.05;35.88;101660.66;5034330;28;45374;-70
2022/03/28 10:43:45;;;;;;;;;50.00;40.75;;;;;20.26;36.18;101686.03;5034429;28;45318;-72
2022/03/28 10:46:12;;;;;;;;;52.00;37.00;;;;;20.30;35.57;101670.66;5034127;28;46399;-72
2022/03/28 10:49:02;;;;;;;;;54.00;41.00;;;;;20.47;35.29;101678.81;5015596;28;46121;-71
2022/03/28 10:51:30;;;;;;;;;47.25;36.00;;;;;20.56;34.59;101681.53;5029317;28;45486;-71
2022/03/28 10:53:56;;;;;;;;;47.00;38.00;;;;;20.61;34.20;101672.47;5034686;28;45441;-73
2022/03/28 10:56:32;;;;;;;;;35.75;31.25;;;;;20.68;33.20;101669.78;5034937;28;45448;-71
2022/03/28 10:59:06;;;;;;;;;36.25;32.75;;;;;20.76;32.51;101667.97;5035106;28;45398;-73
2022/03/28 11:01:41;;;;;;;;;42.50;31.50;;;;;20.80;33.19;101662.53;5035680;28;45324;-73
2022/03/28 11:04:15;;;;;;;;;45.50;35.00;;;;;20.87;31.54;101655.28;5035039;28;45443;-71
2022/03/28 11:06:44;;;;;;;;;37.25;27.75;;;;;20.83;31.43;101628.13;5034870;28;45601;-74
2022/03/28 11:09:10;;;;;;;;;33.75;30.75;;;;;20.86;30.21;101626.31;5034631;28;45405;-72